createdAt,value
2023-02-23T00:01:55.156Z,11.14
2023-02-23T00:04:24.056Z,11.14
2023-02-23T00:06:52.127Z,11.12
2023-02-23T00:09:24.401Z,11.10
2023-02-23T00:11:55.844Z,11.08
2023-02-23T00:14:28.612Z,11.10
2023-02-23T00:16:57.948Z,11.08
2023-02-23T00:19:26.158Z,11.09
2023-02-23T00:21:54.858Z,11.08
2023-02-23T00:24:23.204Z,11.07
2023-02-23T00:26:51.594Z,11.07
2023-02-23T00:29:23.162Z,11.09
2023-02-23T00:31:52.563Z,11.07
2023-02-23T00:34:21.999Z,11.06
2023-02-23T00:36:51.942Z,11.05
2023-02-23T00:39:21.770Z,11.03
2023-02-23T00:41:50.178Z,11.04
2023-02-23T00:44:18.299Z,11.02
2023-02-23T00:46:49.438Z,11.05
2023-02-23T00:49:17.329Z,11.04
2023-02-23T00:51:45.333Z,11.03
2023-02-23T00:54:15.075Z,11.01
2023-02-23T00:56:42.936Z,11.01
2023-02-23T00:59:11.576Z,10.92
2023-02-23T01:01:41.696Z,11.02
2023-02-23T01:04:12.669Z,11.00
2023-02-23T01:06:42.473Z,10.96
2023-02-23T01:09:13.533Z,10.99
2023-02-23T01:11:41.887Z,10.97
2023-02-23T01:14:11.585Z,10.88
2023-02-23T01:16:39.827Z,11.01
2023-02-23T01:19:08.841Z,10.89
2023-02-23T01:21:44.449Z,10.99
2023-02-23T01:24:15.168Z,10.99
2023-02-23T01:26:45.015Z,11.00
2023-02-23T01:29:14.974Z,11.00
2023-02-23T01:31:45.034Z,10.93
2023-02-23T01:34:14.387Z,10.95
2023-02-23T01:36:45.408Z,10.93
2023-02-23T01:39:15.239Z,10.98
2023-02-23T01:41:43.530Z,10.95
2023-02-23T01:44:44.760Z,10.90
2023-02-23T01:47:17.094Z,10.92
2023-02-23T01:49:44.896Z,10.91
2023-02-23T01:52:18.468Z,10.92
2023-02-23T01:54:50.645Z,10.92
2023-02-23T01:57:22.038Z,10.92
2023-02-23T01:59:51.272Z,10.93
2023-02-23T02:02:21.349Z,10.91
2023-02-23T02:04:52.136Z,10.85
2023-02-23T02:07:25.071Z,10.93
2023-02-23T02:10:09.529Z,10.85
2023-02-23T02:12:38.614Z,10.90
2023-02-23T02:15:16.924Z,10.91
2023-02-23T02:17:53.475Z,10.92
2023-02-23T02:21:18.502Z,10.87
2023-02-23T02:24:26.154Z,10.86
2023-02-23T02:27:11.613Z,10.83
2023-02-23T02:29:57.000Z,10.82
2023-02-23T02:33:11.043Z,10.77
2023-02-23T02:36:15.474Z,10.79
2023-02-23T02:38:54.750Z,10.71
2023-02-23T02:41:35.503Z,10.79
2023-02-23T02:44:12.020Z,10.78
2023-02-23T02:46:43.554Z,10.80
2023-02-23T02:49:19.273Z,10.80
2023-02-23T02:51:52.927Z,10.80
2023-02-23T02:54:26.684Z,10.82
2023-02-23T02:57:00.380Z,10.83
2023-02-23T02:59:47.044Z,10.82
2023-02-23T03:02:35.574Z,10.80
2023-02-23T03:05:30.747Z,10.81
2023-02-23T03:08:27.835Z,10.82
2023-02-23T03:11:20.103Z,10.80
2023-02-23T03:14:21.345Z,10.81
2023-02-23T03:17:19.332Z,10.82
2023-02-23T03:20:14.095Z,10.80
2023-02-23T03:23:10.039Z,10.79
2023-02-23T03:26:07.462Z,10.77
2023-02-23T03:28:59.444Z,10.76
2023-02-23T03:31:54.905Z,10.73
2023-02-23T03:34:47.537Z,10.74
2023-02-23T03:37:39.817Z,10.76
2023-02-23T03:40:32.295Z,10.78
2023-02-23T03:43:20.905Z,10.77
2023-02-23T03:46:08.367Z,10.77
2023-02-23T03:48:55.797Z,10.78
2023-02-23T03:51:44.580Z,10.77
2023-02-23T03:54:33.982Z,10.75
2023-02-23T03:57:23.188Z,10.73
2023-02-23T04:00:13.817Z,10.74
2023-02-23T04:03:02.500Z,10.65
2023-02-23T04:05:49.656Z,10.73
2023-02-23T04:08:38.267Z,10.73
2023-02-23T04:11:33.202Z,10.63
2023-02-23T04:14:04.691Z,10.72
2023-02-23T04:16:34.868Z,10.75
2023-02-23T04:19:04.001Z,10.77
2023-02-23T04:21:32.318Z,10.76
2023-02-23T04:24:00.042Z,10.73
2023-02-23T04:26:27.804Z,10.76
2023-02-23T04:28:55.562Z,10.72
2023-02-23T04:31:25.325Z,10.71
2023-02-23T04:33:53.293Z,10.72
2023-02-23T04:36:24.222Z,10.75
2023-02-23T04:38:51.989Z,10.75
2023-02-23T04:41:20.225Z,10.76
2023-02-23T04:43:48.198Z,10.76
2023-02-23T04:46:16.031Z,10.74
2023-02-23T04:48:43.826Z,10.74
2023-02-23T04:51:11.564Z,10.73
2023-02-23T04:53:40.687Z,10.74
2023-02-23T04:56:08.646Z,10.72
2023-02-23T04:58:36.432Z,10.73
2023-02-23T05:01:08.035Z,10.72
2023-02-23T05:03:36.155Z,10.71
2023-02-23T05:06:04.002Z,10.69
2023-02-23T05:08:32.128Z,10.67
2023-02-23T05:11:01.345Z,10.66
2023-02-23T05:13:29.143Z,10.65
2023-02-23T05:15:58.563Z,10.64
2023-02-23T05:18:31.320Z,10.61
2023-02-23T05:21:03.477Z,10.56
2023-02-23T05:23:31.494Z,10.48
2023-02-23T05:26:06.265Z,10.58
2023-02-23T05:28:38.691Z,10.56
2023-02-23T05:31:07.358Z,10.56
2023-02-23T05:33:42.271Z,10.55
2023-02-23T05:36:11.847Z,10.57
2023-02-23T05:38:40.596Z,10.55
2023-02-23T05:41:10.452Z,10.55
2023-02-23T05:43:38.585Z,10.53
2023-02-23T05:46:07.987Z,10.54
2023-02-23T05:48:36.445Z,10.53
2023-02-23T05:51:04.754Z,10.52
2023-02-23T05:53:32.746Z,10.51
2023-02-23T05:56:00.968Z,10.51
2023-02-23T05:58:30.503Z,10.50
2023-02-23T06:00:58.324Z,10.49
2023-02-23T06:03:26.376Z,10.50
2023-02-23T06:05:56.971Z,10.50
2023-02-23T06:08:24.941Z,10.50
2023-02-23T06:10:53.159Z,10.50
2023-02-23T06:13:22.181Z,10.46
2023-02-23T06:15:51.443Z,10.52
2023-02-23T06:18:19.248Z,10.51
2023-02-23T06:20:47.127Z,10.48
2023-02-23T06:23:15.734Z,10.50
2023-02-23T06:25:43.768Z,10.50
2023-02-23T06:28:11.562Z,10.50
2023-02-23T06:30:40.267Z,10.39
2023-02-23T06:33:09.546Z,10.48
2023-02-23T06:35:37.352Z,10.48
2023-02-23T06:38:06.290Z,10.47
2023-02-23T06:40:34.464Z,10.39
2023-02-23T06:43:03.561Z,10.48
2023-02-23T06:45:31.861Z,10.46
2023-02-23T06:47:59.798Z,10.44
2023-02-23T06:50:29.372Z,10.31
2023-02-23T06:52:57.712Z,10.50
2023-02-23T06:55:25.452Z,10.48
2023-02-23T06:57:54.238Z,10.49
2023-02-23T07:00:22.873Z,10.49
2023-02-23T07:02:50.736Z,10.50
2023-02-23T07:05:18.619Z,10.52
2023-02-23T07:07:47.941Z,10.50
2023-02-23T07:10:15.888Z,10.49
2023-02-23T07:12:43.705Z,10.49
2023-02-23T07:15:12.628Z,10.50
2023-02-23T07:17:40.430Z,10.48
2023-02-23T07:20:08.831Z,10.49
2023-02-23T07:22:38.600Z,10.48
2023-02-23T07:25:09.725Z,10.32
2023-02-23T07:27:37.644Z,10.47
2023-02-23T07:30:06.407Z,10.47
2023-02-23T07:32:34.331Z,10.47
2023-02-23T07:35:02.147Z,10.48
2023-02-23T07:37:29.906Z,10.45
2023-02-23T07:40:00.062Z,10.50
2023-02-23T07:42:30.480Z,10.51
2023-02-23T07:44:58.270Z,10.51
2023-02-23T07:47:31.046Z,10.50
2023-02-23T07:50:00.571Z,10.47
2023-02-23T07:52:28.243Z,10.49
2023-02-23T07:54:56.545Z,10.48
2023-02-23T07:57:25.034Z,10.49
2023-02-23T07:59:54.209Z,10.50
2023-02-23T08:02:21.971Z,10.39
2023-02-23T08:04:50.650Z,10.50
2023-02-23T08:07:18.389Z,10.49
2023-02-23T08:09:46.163Z,10.48
2023-02-23T08:12:15.422Z,10.48
2023-02-23T08:14:43.452Z,10.48
2023-02-23T08:17:12.815Z,10.47
2023-02-23T08:19:41.133Z,10.43
2023-02-23T08:22:10.251Z,10.49
2023-02-23T08:24:38.284Z,10.47
2023-02-23T08:27:06.381Z,10.49
2023-02-23T08:29:34.894Z,10.50
2023-02-23T08:32:04.137Z,10.48
2023-02-23T08:34:33.328Z,10.45
2023-02-23T08:37:01.117Z,10.47
2023-02-23T08:39:29.088Z,10.45
2023-02-23T08:41:57.344Z,10.43
2023-02-23T08:44:25.205Z,10.45
2023-02-23T08:46:55.324Z,10.46
2023-02-23T08:49:23.153Z,10.44
2023-02-23T08:51:52.781Z,10.48
2023-02-23T08:54:20.564Z,10.46
2023-02-23T08:56:48.269Z,10.46
2023-02-23T08:59:16.250Z,10.41
2023-02-23T09:01:44.098Z,10.48
2023-02-23T09:04:11.817Z,10.47
2023-02-23T09:06:40.937Z,10.40
2023-02-23T09:09:10.326Z,10.45
2023-02-23T09:11:38.063Z,10.47
2023-02-23T09:14:05.954Z,10.35
2023-02-23T09:16:33.964Z,10.47
2023-02-23T09:19:01.765Z,10.38
2023-02-23T09:21:30.005Z,10.50
2023-02-23T09:24:00.845Z,10.50
2023-02-23T09:26:29.995Z,10.50
2023-02-23T09:29:00.383Z,10.48
2023-02-23T09:31:28.796Z,10.51
2023-02-23T09:33:56.921Z,10.50
2023-02-23T09:36:26.467Z,10.53
2023-02-23T09:38:57.264Z,10.53
2023-02-23T09:41:58.277Z,10.55
2023-02-23T09:44:34.417Z,10.54
2023-02-23T09:47:13.758Z,10.57
2023-02-23T09:49:43.426Z,10.60
2023-02-23T09:52:19.197Z,10.61
2023-02-23T09:54:47.992Z,10.57
2023-02-23T09:57:24.114Z,10.60
2023-02-23T09:59:51.912Z,10.60
2023-02-23T10:02:25.331Z,10.60
2023-02-23T10:04:57.775Z,10.61
2023-02-23T10:07:35.882Z,10.57
2023-02-23T10:10:23.287Z,10.61
2023-02-23T10:13:03.869Z,10.57
2023-02-23T10:15:39.950Z,10.57
2023-02-23T10:18:17.628Z,10.62
2023-02-23T10:20:51.953Z,10.57
2023-02-23T10:23:31.273Z,10.61
2023-02-23T10:26:01.793Z,10.53
2023-02-23T10:28:35.524Z,10.46
2023-02-23T10:31:05.308Z,10.56
2023-02-23T10:33:38.333Z,10.58
2023-02-23T10:36:16.470Z,10.53
2023-02-23T10:38:44.252Z,10.56
2023-02-23T10:41:14.916Z,10.46
2023-02-23T10:43:44.307Z,10.61
2023-02-23T10:46:21.817Z,10.59
2023-02-23T10:48:51.966Z,10.61
2023-02-23T10:51:26.452Z,10.58
2023-02-23T10:53:54.493Z,10.61
2023-02-23T10:56:24.244Z,10.62
2023-02-23T10:58:55.673Z,10.56
2023-02-23T11:01:36.056Z,10.65
2023-02-23T11:04:17.247Z,10.66
2023-02-23T11:06:48.628Z,10.62
2023-02-23T11:09:41.260Z,10.62
2023-02-23T11:12:23.100Z,10.65
2023-02-23T11:14:54.427Z,10.65
2023-02-23T11:17:29.044Z,10.63
2023-02-23T11:20:02.546Z,10.58
2023-02-23T11:22:37.051Z,10.70
2023-02-23T11:25:16.567Z,10.66
2023-02-23T11:27:51.553Z,10.57
2023-02-23T11:30:25.320Z,10.67
2023-02-23T11:32:55.643Z,10.68
2023-02-23T11:35:30.611Z,10.68
2023-02-23T11:37:58.566Z,10.70
2023-02-23T11:40:27.954Z,10.69
2023-02-23T11:42:58.143Z,10.68
2023-02-23T11:45:33.565Z,10.65
2023-02-23T11:48:06.650Z,10.66
2023-02-23T11:50:36.917Z,10.67
2023-02-23T11:53:07.461Z,10.69
2023-02-23T11:55:38.568Z,10.65
2023-02-23T11:58:23.652Z,10.67
2023-02-23T12:01:00.839Z,10.55
2023-02-23T12:03:33.633Z,10.48
2023-02-23T12:06:02.404Z,10.60
2023-02-23T12:08:40.448Z,10.48
2023-02-23T12:11:13.483Z,10.56
2023-02-23T12:13:45.056Z,10.57
2023-02-23T12:16:19.952Z,10.48
2023-02-23T12:18:53.937Z,10.56
2023-02-23T12:21:31.971Z,10.55
2023-02-23T12:24:12.999Z,10.58
2023-02-23T12:26:48.741Z,10.58
2023-02-23T12:29:24.185Z,10.61
2023-02-23T12:31:58.863Z,10.58
2023-02-23T12:34:32.071Z,10.56
2023-02-23T12:37:07.541Z,10.63
2023-02-23T12:39:40.913Z,10.50
2023-02-23T12:42:17.314Z,10.53
2023-02-23T12:45:01.806Z,10.55
2023-02-23T12:47:37.192Z,10.56
2023-02-23T12:50:13.373Z,10.58
2023-02-23T12:52:49.397Z,10.51
2023-02-23T12:55:24.460Z,10.57
2023-02-23T12:57:59.606Z,10.58
2023-02-23T13:00:39.250Z,10.49
2023-02-23T13:03:46.220Z,10.56
2023-02-23T13:06:21.552Z,10.55
2023-02-23T13:09:05.967Z,10.57
2023-02-23T13:11:52.897Z,10.60
2023-02-23T13:14:27.670Z,10.61
2023-02-23T13:17:01.088Z,10.63
2023-02-23T13:19:36.260Z,10.54
2023-02-23T13:22:25.244Z,10.42
2023-02-23T13:24:56.278Z,10.40
2023-02-23T13:27:29.833Z,10.51
2023-02-23T13:29:59.134Z,10.39
2023-02-23T13:32:32.034Z,10.51
2023-02-23T13:35:02.523Z,10.50
2023-02-23T13:37:38.979Z,10.48
2023-02-23T13:40:26.234Z,10.42
2023-02-23T13:43:07.008Z,10.49
2023-02-23T13:46:05.523Z,10.49
2023-02-23T13:48:56.094Z,10.43
2023-02-23T13:51:36.008Z,10.54
2023-02-23T13:54:07.768Z,10.54
2023-02-23T13:56:42.957Z,10.59
2023-02-23T13:59:17.864Z,10.60
2023-02-23T14:01:48.900Z,10.63
2023-02-23T14:04:22.590Z,10.61
2023-02-23T14:07:00.757Z,10.50
2023-02-23T14:09:32.262Z,10.52
2023-02-23T14:12:19.399Z,10.66
2023-02-23T14:14:47.973Z,10.75
2023-02-23T14:17:44.194Z,10.81
2023-02-23T14:20:29.591Z,10.77
2023-02-23T14:23:27.632Z,10.82
2023-02-23T14:26:12.101Z,10.84
2023-02-23T14:28:41.417Z,10.84
2023-02-23T14:31:22.494Z,10.84
2023-02-23T14:33:59.566Z,10.64
2023-02-23T14:36:38.708Z,10.87
2023-02-23T14:39:16.323Z,10.88
2023-02-23T14:41:50.089Z,10.87
2023-02-23T14:44:30.036Z,10.85
2023-02-23T14:47:03.373Z,10.91
2023-02-23T14:49:35.796Z,10.87
2023-02-23T14:52:07.890Z,10.84
2023-02-23T14:54:38.472Z,10.70
2023-02-23T14:57:08.650Z,10.82
2023-02-23T14:59:39.827Z,10.81
2023-02-23T15:02:12.851Z,10.74
2023-02-23T15:04:42.139Z,10.77
2023-02-23T15:07:18.578Z,10.75
2023-02-23T15:09:48.541Z,10.75
2023-02-23T15:12:20.383Z,10.75
2023-02-23T15:14:50.730Z,10.80
2023-02-23T15:17:21.975Z,10.83
2023-02-23T15:20:05.970Z,10.83
2023-02-23T15:22:41.962Z,10.82
2023-02-23T15:25:17.437Z,10.80
2023-02-23T15:27:46.620Z,10.67
2023-02-23T15:30:26.580Z,10.72
2023-02-23T15:33:02.041Z,10.71
2023-02-23T15:35:33.932Z,10.84
2023-02-23T15:38:14.227Z,10.78
2023-02-23T15:40:59.171Z,10.79
2023-02-23T15:43:29.875Z,10.78
2023-02-23T15:46:03.548Z,10.74
2023-02-23T15:48:46.799Z,10.72
2023-02-23T15:51:24.048Z,10.66
2023-02-23T15:53:52.102Z,10.63
2023-02-23T15:56:26.650Z,10.68
2023-02-23T15:58:59.608Z,10.52
2023-02-23T16:01:30.322Z,10.64
2023-02-23T16:04:01.990Z,10.64
2023-02-23T16:06:34.533Z,10.61
2023-02-23T16:09:13.518Z,10.53
2023-02-23T16:11:43.026Z,10.57
2023-02-23T16:14:16.749Z,10.56
2023-02-23T16:16:46.685Z,10.33
2023-02-23T16:19:16.255Z,10.48
2023-02-23T16:21:49.390Z,10.45
2023-02-23T16:24:22.584Z,10.43
2023-02-23T16:26:57.193Z,9.47
2023-02-23T16:29:29.171Z,10.48
2023-02-23T16:32:00.894Z,10.50
2023-02-23T16:34:34.196Z,10.30
2023-02-23T16:37:05.378Z,10.48
2023-02-23T16:39:35.624Z,10.35
2023-02-23T16:42:10.310Z,10.46
2023-02-23T16:44:43.785Z,10.46
2023-02-23T16:47:30.525Z,10.14
2023-02-23T16:50:00.779Z,9.77
2023-02-23T16:52:30.316Z,10.40
2023-02-23T16:55:04.692Z,9.68
2023-02-23T16:57:43.043Z,10.33
2023-02-23T17:00:18.429Z,10.24
2023-02-23T17:02:46.679Z,10.37
2023-02-23T17:05:19.314Z,10.26
2023-02-23T17:07:48.542Z,10.35
2023-02-23T17:10:24.969Z,10.34
2023-02-23T17:12:56.542Z,10.35
2023-02-23T17:15:27.507Z,10.34
2023-02-23T17:17:56.154Z,9.06
2023-02-23T17:20:25.994Z,10.34
2023-02-23T17:22:55.480Z,10.27
2023-02-23T17:25:26.695Z,10.29
2023-02-23T17:27:56.157Z,10.31
2023-02-23T17:30:26.267Z,10.30
2023-02-23T17:32:56.506Z,10.30
2023-02-23T17:35:26.891Z,10.20
2023-02-23T17:37:57.538Z,10.26
2023-02-23T17:40:33.630Z,10.27
2023-02-23T17:43:06.265Z,10.26
2023-02-23T17:45:34.033Z,10.22
2023-02-23T17:48:01.757Z,10.21
2023-02-23T17:50:30.122Z,10.22
2023-02-23T17:52:58.339Z,10.20
2023-02-23T17:55:26.786Z,10.16
2023-02-23T17:57:54.691Z,10.07
2023-02-23T18:00:25.057Z,10.18
2023-02-23T18:02:52.892Z,10.17
2023-02-23T18:05:21.649Z,10.17
2023-02-23T18:07:49.530Z,10.00
2023-02-23T18:10:17.674Z,10.02
2023-02-23T18:12:45.666Z,10.16
2023-02-23T18:15:13.517Z,10.15
2023-02-23T18:17:42.655Z,10.15
2023-02-23T18:20:16.128Z,10.15
2023-02-23T18:22:44.355Z,10.17
2023-02-23T18:25:21.192Z,10.17
2023-02-23T18:27:51.734Z,10.18
2023-02-23T18:30:20.075Z,10.09
2023-02-23T18:32:49.424Z,10.18
2023-02-23T18:35:17.925Z,10.20
2023-02-23T18:37:45.702Z,10.20
2023-02-23T18:40:21.120Z,10.17
2023-02-23T18:42:56.549Z,10.05
2023-02-23T18:45:24.302Z,10.19
2023-02-23T18:47:53.902Z,10.17
2023-02-23T18:50:22.392Z,10.18
2023-02-23T18:52:51.720Z,10.20
2023-02-23T18:55:22.157Z,10.09
2023-02-23T18:57:50.439Z,10.16
2023-02-23T19:00:19.441Z,10.15
2023-02-23T19:02:47.407Z,10.16
2023-02-23T19:05:20.886Z,10.19
2023-02-23T19:07:49.672Z,10.20
2023-02-23T19:10:17.450Z,10.19
2023-02-23T19:12:45.224Z,10.19
2023-02-23T19:15:13.646Z,10.18
2023-02-23T19:17:41.460Z,10.18
2023-02-23T19:20:13.687Z,10.14
2023-02-23T19:22:43.574Z,10.13
2023-02-23T19:25:15.276Z,10.13
2023-02-23T19:27:43.443Z,10.00
2023-02-23T19:30:14.426Z,10.11
2023-02-23T19:32:43.658Z,10.10
2023-02-23T19:35:14.602Z,10.10
2023-02-23T19:37:48.568Z,10.07
2023-02-23T19:40:19.882Z,10.05
2023-02-23T19:42:49.487Z,10.06
2023-02-23T19:45:18.324Z,10.03
2023-02-23T19:47:46.242Z,9.78
2023-02-23T19:50:17.186Z,9.96
2023-02-23T19:52:46.581Z,10.03
2023-02-23T19:55:15.248Z,10.06
2023-02-23T19:57:43.100Z,10.03
2023-02-23T20:00:12.652Z,10.01
2023-02-23T20:02:43.494Z,10.02
2023-02-23T20:05:12.178Z,10.00
2023-02-23T20:07:40.075Z,10.00
2023-02-23T20:10:13.843Z,9.98
2023-02-23T20:12:41.844Z,9.87
2023-02-23T20:15:11.193Z,9.97
2023-02-23T20:17:39.973Z,9.98
2023-02-23T20:20:11.154Z,9.99
2023-02-23T20:22:41.350Z,9.78
2023-02-23T20:25:15.694Z,9.97
2023-02-23T20:27:44.721Z,9.97
2023-02-23T20:30:14.028Z,9.92
2023-02-23T20:32:41.932Z,9.96
2023-02-23T20:35:13.638Z,9.94
2023-02-23T20:37:41.604Z,9.96
2023-02-23T20:40:18.274Z,9.93
2023-02-23T20:42:47.860Z,9.94
2023-02-23T20:45:18.176Z,9.91
2023-02-23T20:47:46.909Z,9.86
2023-02-23T20:50:15.796Z,9.85
2023-02-23T20:52:44.224Z,9.84
2023-02-23T20:55:19.207Z,9.84
2023-02-23T20:57:47.792Z,9.89
2023-02-23T21:00:22.559Z,9.81
2023-02-23T21:02:55.398Z,9.84
2023-02-23T21:05:25.148Z,9.76
2023-02-23T21:07:53.366Z,9.78
2023-02-23T21:10:23.852Z,9.76
2023-02-23T21:12:53.003Z,9.76
2023-02-23T21:15:20.871Z,9.72
2023-02-23T21:17:50.456Z,9.49
2023-02-23T21:20:21.983Z,9.56
2023-02-23T21:22:50.144Z,9.64
2023-02-23T21:25:19.372Z,9.60
2023-02-23T21:27:49.249Z,9.66
2023-02-23T21:30:22.301Z,9.64
2023-02-23T21:32:55.442Z,9.53
2023-02-23T21:35:23.373Z,9.62
2023-02-23T21:37:59.317Z,9.63
2023-02-23T21:40:27.184Z,9.64
2023-02-23T21:43:01.200Z,9.65
2023-02-23T21:45:31.617Z,9.65
2023-02-23T21:47:59.420Z,9.64
2023-02-23T21:50:27.213Z,9.64
2023-02-23T21:52:58.185Z,9.62
2023-02-23T21:55:26.032Z,9.64
2023-02-23T21:58:16.045Z,9.64
2023-02-23T22:00:47.772Z,9.59
2023-02-23T22:03:15.602Z,9.57
2023-02-23T22:05:53.575Z,9.59
2023-02-23T22:08:21.645Z,9.31
2023-02-23T22:10:49.427Z,9.68
2023-02-23T22:13:21.896Z,9.43
2023-02-23T22:15:51.780Z,9.68
2023-02-23T22:18:19.619Z,9.67
2023-02-23T22:20:55.347Z,9.52
2023-02-23T22:23:23.357Z,9.67
2023-02-23T22:25:51.232Z,9.65
2023-02-23T22:28:20.380Z,9.65
2023-02-23T22:30:51.045Z,9.59
2023-02-23T22:33:20.301Z,9.67
2023-02-23T22:35:50.848Z,9.55
2023-02-23T22:38:20.340Z,9.64
2023-02-23T22:40:48.856Z,9.60
2023-02-23T22:43:17.097Z,9.63
2023-02-23T22:45:46.321Z,9.63
2023-02-23T22:48:14.423Z,9.63
2023-02-23T22:50:45.170Z,9.57
2023-02-23T22:53:12.934Z,9.58
2023-02-23T22:55:40.907Z,9.59
2023-02-23T22:58:10.353Z,9.60
2023-02-23T23:00:38.141Z,9.59
2023-02-23T23:03:07.502Z,9.52
2023-02-23T23:05:38.475Z,9.60
2023-02-23T23:08:07.330Z,9.56
2023-02-23T23:10:35.053Z,9.59
2023-02-23T23:13:03.143Z,9.62
2023-02-23T23:15:33.547Z,9.54
2023-02-23T23:18:03.590Z,9.59
2023-02-23T23:20:34.835Z,9.55
2023-02-23T23:23:02.711Z,9.64
2023-02-23T23:25:30.629Z,9.63
2023-02-23T23:27:59.492Z,9.58
2023-02-23T23:30:29.485Z,9.47
2023-02-23T23:33:00.492Z,9.37
2023-02-23T23:35:28.741Z,9.44
2023-02-23T23:38:01.637Z,9.44
2023-02-23T23:40:35.911Z,9.42
2023-02-23T23:43:07.501Z,9.14
2023-02-23T23:45:38.330Z,9.25
2023-02-23T23:48:09.426Z,9.46
2023-02-23T23:50:39.486Z,9.42
2023-02-23T23:53:10.579Z,9.44
2023-02-23T23:55:38.521Z,9.44
2023-02-23T23:58:09.504Z,9.38
